TAF and METAR

Decoding for American and Canadian METARs and TAFs is not fully implemented.

Could not understand the following METAR

MMZO 292146Z 27030KT 10SM SKC 28/22 A2980

TAF for Playa de Oro International Airport

TAF MMZO 291647Z 2918/3018 25005KT P6SM SKC BECMG 2920/2921 25012KT SCT020 FM300200 32005KT P6SM SCT020 BECMG 3005/3006 00000KT FM301200 00000KT 6SM HZ BKN020
Report created 29. mai 18:47

between 29. mai 20:00 - 30. mai 20:00

wind 5 knots from WSW (250°)